createdAt,value
2023-05-19T00:01:37.456Z,26.41
2023-05-19T00:03:48.971Z,26.35
2023-05-19T00:05:53.574Z,26.60
2023-05-19T00:07:57.978Z,26.59
2023-05-19T00:09:59.673Z,26.36
2023-05-19T00:12:01.257Z,26.63
2023-05-19T00:14:04.083Z,26.64
2023-05-19T00:16:06.299Z,26.41
2023-05-19T00:18:09.017Z,26.55
2023-05-19T00:20:12.086Z,26.59
2023-05-19T00:22:14.160Z,26.34
2023-05-19T00:24:15.895Z,26.40
2023-05-19T00:26:17.386Z,26.52
2023-05-19T00:28:18.876Z,26.90
2023-05-19T00:30:22.799Z,26.66
2023-05-19T00:32:24.424Z,26.62
2023-05-19T00:34:26.151Z,26.55
2023-05-19T00:36:27.804Z,26.84
2023-05-19T00:38:31.040Z,26.87
2023-05-19T00:40:35.260Z,26.71
2023-05-19T00:42:37.134Z,26.77
2023-05-19T00:44:40.849Z,26.59
2023-05-19T00:46:42.432Z,26.57
2023-05-19T00:48:45.458Z,26.98
2023-05-19T00:50:47.333Z,26.94
2023-05-19T00:52:48.819Z,26.92
2023-05-19T00:54:51.378Z,26.82
2023-05-19T00:56:53.921Z,26.81
2023-05-19T00:58:55.560Z,26.88
2023-05-19T01:01:03.679Z,26.78
2023-05-19T01:03:11.794Z,26.60
2023-05-19T01:05:13.991Z,26.83
2023-05-19T01:07:16.656Z,26.94
2023-05-19T01:09:18.233Z,26.75
2023-05-19T01:11:19.705Z,26.81
2023-05-19T01:13:21.158Z,26.92
2023-05-19T01:15:23.949Z,26.87
2023-05-19T01:17:40.306Z,27.12
2023-05-19T01:19:46.754Z,27.11
2023-05-19T01:22:01.179Z,26.91
2023-05-19T01:24:22.830Z,27.03
2023-05-19T01:26:42.850Z,27.07
2023-05-19T01:28:56.365Z,26.94
2023-05-19T01:31:01.276Z,27.06
2023-05-19T01:33:04.624Z,27.12
2023-05-19T01:35:08.169Z,26.89
2023-05-19T01:37:09.872Z,27.01
2023-05-19T01:39:11.999Z,26.96
2023-05-19T01:41:14.267Z,27.21
2023-05-19T01:43:18.186Z,27.19
2023-05-19T01:45:20.045Z,27.21
2023-05-19T01:47:22.259Z,27.35
2023-05-19T01:49:23.740Z,27.06
2023-05-19T01:51:25.253Z,27.06
2023-05-19T01:53:26.790Z,27.04
2023-05-19T01:55:28.326Z,27.00
2023-05-19T01:57:51.085Z,27.18
2023-05-19T01:59:59.170Z,27.16
2023-05-19T02:02:05.395Z,26.98
2023-05-19T02:04:31.575Z,27.33
2023-05-19T02:06:33.157Z,26.93
2023-05-19T02:08:42.167Z,27.35
2023-05-19T02:10:45.818Z,27.04
2023-05-19T02:12:50.499Z,27.34
2023-05-19T02:15:11.780Z,27.13
2023-05-19T02:17:14.631Z,27.04
2023-05-19T02:19:24.161Z,27.37
2023-05-19T02:21:25.929Z,27.23
2023-05-19T02:23:27.587Z,27.12
2023-05-19T02:25:29.092Z,27.41
2023-05-19T02:27:30.937Z,27.14
2023-05-19T02:29:32.407Z,27.22
2023-05-19T02:31:34.168Z,27.16
2023-05-19T02:33:36.394Z,27.19
2023-05-19T02:35:37.858Z,27.37
2023-05-19T02:37:39.948Z,27.42
2023-05-19T02:39:41.885Z,27.27
2023-05-19T02:41:43.387Z,27.29
2023-05-19T02:43:44.977Z,27.34
2023-05-19T02:45:46.609Z,27.29
2023-05-19T02:47:48.216Z,27.27
2023-05-19T02:49:49.709Z,27.14
2023-05-19T02:51:51.174Z,27.29
2023-05-19T02:53:52.772Z,27.21
2023-05-19T02:55:54.339Z,27.48
2023-05-19T02:57:55.877Z,27.10
2023-05-19T02:59:57.519Z,27.41
2023-05-19T03:02:00.337Z,27.39
2023-05-19T03:04:02.304Z,27.23
2023-05-19T03:06:04.853Z,27.30
2023-05-19T03:08:06.908Z,27.34
2023-05-19T03:10:08.851Z,27.42
2023-05-19T03:12:10.412Z,27.37
2023-05-19T03:14:14.936Z,27.36
2023-05-19T03:16:16.694Z,27.53
2023-05-19T03:18:20.472Z,27.24
2023-05-19T03:20:22.127Z,27.17
2023-05-19T03:22:23.698Z,27.54
2023-05-19T03:24:25.355Z,27.42
2023-05-19T03:26:29.344Z,27.42
2023-05-19T03:28:30.797Z,27.47
2023-05-19T03:30:32.571Z,27.08
2023-05-19T03:32:38.050Z,27.41
2023-05-19T03:34:39.651Z,27.42
2023-05-19T03:36:41.248Z,27.22
2023-05-19T03:38:42.710Z,27.23
2023-05-19T03:40:45.084Z,27.48
2023-05-19T03:42:46.687Z,27.52
2023-05-19T03:44:48.392Z,27.44
2023-05-19T03:46:50.139Z,27.48
2023-05-19T03:48:51.862Z,27.28
2023-05-19T03:50:54.269Z,27.23
2023-05-19T03:52:55.916Z,27.40
2023-05-19T03:54:57.788Z,27.04
2023-05-19T03:56:59.245Z,27.55
2023-05-19T03:59:00.769Z,27.42
2023-05-19T04:01:02.301Z,27.16
2023-05-19T04:03:03.862Z,27.67
2023-05-19T04:05:05.475Z,27.42
2023-05-19T04:07:07.255Z,27.50
2023-05-19T04:09:13.088Z,27.11
2023-05-19T04:11:14.641Z,27.33
2023-05-19T04:13:16.112Z,27.47
2023-05-19T04:15:17.917Z,27.50
2023-05-19T04:17:19.408Z,27.68
2023-05-19T04:19:20.966Z,27.54
2023-05-19T04:21:22.497Z,27.48
2023-05-19T04:23:23.999Z,27.49
2023-05-19T04:25:25.555Z,27.47
2023-05-19T04:27:29.020Z,27.26
2023-05-19T04:29:30.600Z,27.52
2023-05-19T04:31:34.305Z,27.49
2023-05-19T04:33:36.215Z,27.60
2023-05-19T04:35:38.278Z,27.20
2023-05-19T04:37:40.504Z,27.39
2023-05-19T04:39:45.469Z,27.18
2023-05-19T04:41:47.066Z,27.23
2023-05-19T04:43:49.998Z,27.50
2023-05-19T04:45:51.596Z,27.79
2023-05-19T04:47:57.728Z,27.49
2023-05-19T04:50:00.832Z,27.52
2023-05-19T04:52:02.443Z,27.43
2023-05-19T04:54:04.067Z,27.48
2023-05-19T04:56:05.829Z,27.24
2023-05-19T04:58:07.548Z,27.24
2023-05-19T05:00:12.687Z,27.55
2023-05-19T05:02:14.259Z,27.27
2023-05-19T05:04:15.818Z,27.55
2023-05-19T05:06:17.613Z,27.33
2023-05-19T05:08:24.855Z,27.25
2023-05-19T05:10:26.419Z,27.53
2023-05-19T05:12:28.103Z,27.18
2023-05-19T05:14:29.666Z,27.47
2023-05-19T05:16:32.146Z,27.26
2023-05-19T05:18:34.550Z,27.25
2023-05-19T05:20:36.276Z,27.48
2023-05-19T05:22:38.773Z,27.47
2023-05-19T05:24:40.646Z,27.56
2023-05-19T05:26:42.899Z,27.55
2023-05-19T05:28:44.443Z,27.37
2023-05-19T05:30:46.503Z,27.29
2023-05-19T05:32:48.205Z,27.32
2023-05-19T05:34:50.824Z,27.35
2023-05-19T05:36:52.283Z,27.24
2023-05-19T05:38:53.794Z,27.18
2023-05-19T05:40:55.248Z,27.32
2023-05-19T05:42:56.850Z,27.20
2023-05-19T05:44:58.402Z,27.15
2023-05-19T05:47:00.043Z,27.07
2023-05-19T05:49:01.705Z,27.53
2023-05-19T05:51:03.382Z,27.22
2023-05-19T05:53:07.416Z,27.57
2023-05-19T05:55:09.219Z,27.14
2023-05-19T05:57:11.094Z,27.30
2023-05-19T05:59:12.567Z,27.17
2023-05-19T06:01:16.736Z,27.14
2023-05-19T06:03:18.580Z,27.15
2023-05-19T06:05:20.430Z,27.48
2023-05-19T06:07:21.935Z,27.45
2023-05-19T06:09:23.487Z,27.28
2023-05-19T06:11:25.092Z,27.20
2023-05-19T06:13:26.808Z,27.20
2023-05-19T06:15:28.459Z,27.19
2023-05-19T06:17:30.077Z,27.34
2023-05-19T06:19:31.895Z,27.40
2023-05-19T06:21:33.353Z,27.33
2023-05-19T06:23:34.936Z,27.27
2023-05-19T06:25:36.620Z,27.26
2023-05-19T06:27:38.201Z,27.13
2023-05-19T06:29:39.746Z,27.40
2023-05-19T06:31:41.262Z,27.35
2023-05-19T06:33:42.795Z,27.22
2023-05-19T06:35:44.310Z,27.29
2023-05-19T06:37:46.039Z,27.10
2023-05-19T06:39:47.543Z,27.27
2023-05-19T06:41:49.266Z,27.07
2023-05-19T06:43:50.825Z,27.15
2023-05-19T06:45:52.405Z,26.98
2023-05-19T06:47:54.753Z,27.45
2023-05-19T06:49:57.074Z,27.04
2023-05-19T06:51:58.705Z,27.26
2023-05-19T06:54:00.197Z,27.42
2023-05-19T06:56:01.737Z,27.39
2023-05-19T06:58:03.240Z,27.34
2023-05-19T07:00:05.958Z,27.21
2023-05-19T07:02:07.732Z,27.07
2023-05-19T07:04:09.364Z,27.10
2023-05-19T07:06:11.067Z,27.27
2023-05-19T07:08:12.515Z,27.25
2023-05-19T07:10:14.010Z,27.40
2023-05-19T07:12:15.942Z,27.45
2023-05-19T07:14:17.382Z,27.26
2023-05-19T07:16:18.920Z,27.32
2023-05-19T07:18:20.620Z,27.44
2023-05-19T07:20:22.178Z,27.48
2023-05-19T07:22:24.216Z,27.29
2023-05-19T07:24:27.487Z,27.25
2023-05-19T07:26:29.292Z,27.20
2023-05-19T07:28:30.907Z,27.37
2023-05-19T07:30:32.607Z,27.40
2023-05-19T07:32:34.257Z,27.51
2023-05-19T07:34:35.802Z,27.15
2023-05-19T07:36:37.303Z,27.11
2023-05-19T07:38:38.990Z,27.44
2023-05-19T07:40:40.791Z,27.35
2023-05-19T07:42:42.410Z,27.09
2023-05-19T07:44:43.910Z,27.39
2023-05-19T07:46:45.431Z,27.39
2023-05-19T07:48:46.873Z,27.37
2023-05-19T07:50:52.128Z,27.02
2023-05-19T07:52:53.931Z,27.54
2023-05-19T07:54:55.729Z,27.32
2023-05-19T07:56:57.220Z,27.21
2023-05-19T07:58:58.678Z,27.45
2023-05-19T08:01:00.426Z,27.42
2023-05-19T08:03:02.364Z,27.46
2023-05-19T08:05:04.626Z,27.35
2023-05-19T08:07:06.345Z,27.32
2023-05-19T08:09:07.949Z,27.54
2023-05-19T08:11:09.627Z,27.10
2023-05-19T08:13:11.337Z,27.10
2023-05-19T08:15:13.014Z,27.19
2023-05-19T08:17:14.577Z,27.12
2023-05-19T08:19:16.078Z,27.42
2023-05-19T08:21:17.678Z,27.24
2023-05-19T08:23:19.114Z,27.64
2023-05-19T08:25:20.573Z,27.24
2023-05-19T08:27:22.324Z,27.12
2023-05-19T08:29:23.797Z,27.41
2023-05-19T08:31:25.585Z,27.32
2023-05-19T08:33:27.097Z,27.53
2023-05-19T08:35:28.626Z,27.15
2023-05-19T08:37:32.045Z,27.22
2023-05-19T08:39:35.634Z,27.53
2023-05-19T08:41:37.535Z,27.17
2023-05-19T08:43:39.892Z,27.35
2023-05-19T08:45:48.150Z,27.55
2023-05-19T08:47:51.033Z,27.54
2023-05-19T08:49:53.191Z,27.54
2023-05-19T08:52:00.330Z,27.50
2023-05-19T08:54:09.113Z,27.19
2023-05-19T08:56:13.322Z,27.37
2023-05-19T08:58:16.542Z,27.57
2023-05-19T09:00:18.435Z,27.54
2023-05-19T09:02:22.100Z,27.54
2023-05-19T09:04:25.598Z,27.33
2023-05-19T09:06:28.245Z,27.47
2023-05-19T09:08:30.009Z,27.08
2023-05-19T09:10:31.573Z,27.24
2023-05-19T09:12:33.447Z,27.23
2023-05-19T09:14:35.129Z,27.18
2023-05-19T09:16:36.878Z,27.31
2023-05-19T09:18:39.539Z,27.36
2023-05-19T09:20:42.535Z,27.58
2023-05-19T09:22:47.188Z,27.45
2023-05-19T09:24:49.339Z,27.42
2023-05-19T09:26:50.840Z,27.54
2023-05-19T09:28:52.361Z,27.45
2023-05-19T09:31:06.870Z,27.38
2023-05-19T09:33:10.117Z,27.51
2023-05-19T09:35:13.035Z,27.62
2023-05-19T09:37:14.552Z,27.43
2023-05-19T09:39:16.509Z,27.58
2023-05-19T09:41:18.240Z,27.39
2023-05-19T09:43:21.545Z,27.60
2023-05-19T09:45:23.042Z,27.36
2023-05-19T09:47:24.531Z,27.77
2023-05-19T09:49:29.718Z,27.75
2023-05-19T09:51:32.005Z,27.46
2023-05-19T09:53:34.114Z,27.68
2023-05-19T09:55:35.617Z,27.41
2023-05-19T09:57:38.155Z,27.68
2023-05-19T09:59:39.806Z,27.47
2023-05-19T10:01:43.942Z,27.67
2023-05-19T10:03:45.635Z,27.40
2023-05-19T10:05:47.650Z,27.63
2023-05-19T10:07:51.453Z,27.18
2023-05-19T10:09:55.395Z,27.30
2023-05-19T10:11:58.261Z,27.59
2023-05-19T10:14:00.095Z,27.37
2023-05-19T10:16:01.980Z,27.66
2023-05-19T10:18:03.963Z,27.57
2023-05-19T10:20:07.218Z,27.62
2023-05-19T10:22:08.783Z,27.67
2023-05-19T10:24:11.546Z,27.54
2023-05-19T10:26:15.005Z,27.61
2023-05-19T10:28:17.710Z,27.55
2023-05-19T10:30:21.796Z,27.26
2023-05-19T10:32:25.768Z,27.43
2023-05-19T10:34:51.472Z,27.27
2023-05-19T10:37:02.010Z,27.27
2023-05-19T10:39:12.693Z,27.26
2023-05-19T10:41:32.875Z,27.28
2023-05-19T10:43:47.087Z,27.14
2023-05-19T10:45:51.697Z,27.42
2023-05-19T10:47:54.361Z,27.40
2023-05-19T10:49:56.238Z,27.24
2023-05-19T10:51:57.801Z,27.30
2023-05-19T10:54:02.875Z,27.26
2023-05-19T10:56:04.667Z,27.25
2023-05-19T10:58:06.229Z,27.47
2023-05-19T11:00:27.160Z,27.14
2023-05-19T11:02:39.851Z,27.45
2023-05-19T11:04:51.123Z,27.14
2023-05-19T11:06:53.547Z,27.30
2023-05-19T11:08:55.020Z,27.18
2023-05-19T11:10:56.955Z,27.29
2023-05-19T11:12:58.683Z,27.33
2023-05-19T11:15:00.196Z,26.94
2023-05-19T11:17:01.715Z,26.93
2023-05-19T11:19:06.055Z,27.19
2023-05-19T11:21:07.704Z,27.26
2023-05-19T11:23:10.228Z,27.25
2023-05-19T11:25:11.904Z,27.06
2023-05-19T11:27:40.160Z,27.00
2023-05-19T11:29:42.668Z,27.36
2023-05-19T11:31:44.541Z,27.41
2023-05-19T11:33:46.210Z,27.19
2023-05-19T11:35:49.568Z,27.11
2023-05-19T11:37:54.152Z,27.29
2023-05-19T11:39:55.764Z,27.17
2023-05-19T11:41:57.261Z,26.93
2023-05-19T11:43:58.839Z,27.05
2023-05-19T11:46:01.183Z,27.03
2023-05-19T11:48:06.413Z,26.74
2023-05-19T11:50:11.468Z,26.88
2023-05-19T11:52:13.249Z,27.11
2023-05-19T11:54:14.897Z,26.47
2023-05-19T11:56:16.456Z,26.46
2023-05-19T11:58:18.023Z,26.74
2023-05-19T12:00:22.249Z,26.85
2023-05-19T12:02:28.112Z,27.13
2023-05-19T12:04:32.830Z,26.99
2023-05-19T12:06:34.396Z,26.97
2023-05-19T12:08:36.604Z,26.98
2023-05-19T12:10:38.951Z,26.71
2023-05-19T12:12:40.445Z,26.75
2023-05-19T12:14:42.024Z,26.48
2023-05-19T12:16:43.630Z,27.40
2023-05-19T12:18:45.222Z,27.04
2023-05-19T12:20:46.923Z,26.72
2023-05-19T12:22:48.604Z,26.73
2023-05-19T12:24:50.805Z,27.20
2023-05-19T12:26:52.280Z,27.32
2023-05-19T12:28:53.828Z,26.81
2023-05-19T12:30:58.351Z,27.52
2023-05-19T12:33:01.386Z,26.90
2023-05-19T12:35:04.730Z,26.55
2023-05-19T12:37:06.452Z,26.12
2023-05-19T12:39:08.279Z,26.81
2023-05-19T12:41:12.791Z,27.03
2023-05-19T12:43:22.113Z,26.99
2023-05-19T12:45:25.655Z,26.97
2023-05-19T12:47:32.147Z,27.30
2023-05-19T12:49:34.052Z,27.16
2023-05-19T12:51:36.899Z,27.20
2023-05-19T12:53:38.673Z,27.39
2023-05-19T12:55:43.897Z,27.75
2023-05-19T12:57:49.905Z,27.60
2023-05-19T12:59:52.045Z,27.81
2023-05-19T13:01:57.319Z,27.89
2023-05-19T13:03:59.250Z,27.71
2023-05-19T13:06:00.935Z,27.92
2023-05-19T13:08:05.054Z,27.86
2023-05-19T13:10:06.840Z,27.88
2023-05-19T13:12:08.502Z,27.84
2023-05-19T13:14:10.129Z,27.96
2023-05-19T13:16:11.622Z,27.99
2023-05-19T13:18:13.745Z,28.31
2023-05-19T13:20:15.290Z,27.70
2023-05-19T13:22:17.105Z,28.09
2023-05-19T13:24:18.762Z,28.33
2023-05-19T13:26:21.396Z,28.07
2023-05-19T13:28:23.327Z,28.10
2023-05-19T13:30:25.835Z,28.22
2023-05-19T13:32:27.304Z,28.13
2023-05-19T13:34:28.979Z,27.94
2023-05-19T13:36:30.505Z,28.12
2023-05-19T13:38:32.154Z,28.02
2023-05-19T13:40:35.116Z,27.85
2023-05-19T13:42:36.949Z,27.50
2023-05-19T13:44:38.616Z,27.91
2023-05-19T13:46:45.577Z,27.82
2023-05-19T13:48:48.139Z,28.01
2023-05-19T13:50:50.895Z,28.26
2023-05-19T13:52:52.412Z,27.97
2023-05-19T13:54:56.824Z,28.28
2023-05-19T13:56:58.394Z,27.95
2023-05-19T13:59:00.044Z,27.99
2023-05-19T14:01:01.520Z,27.78
2023-05-19T14:03:03.458Z,27.94
2023-05-19T14:05:06.109Z,27.75
2023-05-19T14:07:08.165Z,27.70
2023-05-19T14:09:09.854Z,27.82
2023-05-19T14:11:17.341Z,27.74
2023-05-19T14:13:32.017Z,27.86
2023-05-19T14:15:37.572Z,27.97
2023-05-19T14:17:39.148Z,27.75
2023-05-19T14:19:40.847Z,27.96
2023-05-19T14:21:42.452Z,28.07
2023-05-19T14:23:44.241Z,28.09
2023-05-19T14:25:46.116Z,27.86
2023-05-19T14:27:47.666Z,27.89
2023-05-19T14:29:49.626Z,27.54
2023-05-19T14:31:51.455Z,27.65
2023-05-19T14:33:53.065Z,27.24
2023-05-19T14:35:55.453Z,27.66
2023-05-19T14:37:56.970Z,27.89
2023-05-19T14:39:58.690Z,27.83
2023-05-19T14:42:00.182Z,27.70
2023-05-19T14:44:01.875Z,28.37
2023-05-19T14:46:03.480Z,27.73
2023-05-19T14:48:05.480Z,28.11
2023-05-19T14:50:07.447Z,27.97
2023-05-19T14:52:09.046Z,28.01
2023-05-19T14:54:10.598Z,28.27
2023-05-19T14:56:12.126Z,27.54
2023-05-19T14:58:27.558Z,27.93
2023-05-19T15:00:30.881Z,27.97
2023-05-19T15:02:32.461Z,27.93
2023-05-19T15:04:35.917Z,27.95
2023-05-19T15:06:37.494Z,28.15
2023-05-19T15:08:40.787Z,27.88
2023-05-19T15:10:42.390Z,28.42
2023-05-19T15:12:43.953Z,27.86
2023-05-19T15:14:45.738Z,28.38
2023-05-19T15:16:47.364Z,27.91
2023-05-19T15:18:49.093Z,27.95
2023-05-19T15:20:50.641Z,28.15
2023-05-19T15:22:52.164Z,28.42
2023-05-19T15:24:53.933Z,28.79
2023-05-19T15:26:55.644Z,28.78
2023-05-19T15:28:57.110Z,28.50
2023-05-19T15:30:58.653Z,28.59
2023-05-19T15:33:00.292Z,28.82
2023-05-19T15:35:01.853Z,28.35
2023-05-19T15:37:03.613Z,28.88
2023-05-19T15:39:06.428Z,28.78
2023-05-19T15:41:08.573Z,28.79
2023-05-19T15:43:10.038Z,28.72
2023-05-19T15:45:11.891Z,29.01
2023-05-19T15:47:13.731Z,28.82
2023-05-19T15:49:15.280Z,28.43
2023-05-19T15:51:17.052Z,29.73
2023-05-19T15:53:20.140Z,29.33
2023-05-19T15:55:21.687Z,29.36
2023-05-19T15:57:23.395Z,28.44
2023-05-19T15:59:24.834Z,28.26
2023-05-19T16:01:26.649Z,28.27
2023-05-19T16:03:29.789Z,28.41
2023-05-19T16:05:31.391Z,29.21
2023-05-19T16:07:32.964Z,28.97
2023-05-19T16:09:34.690Z,29.06
2023-05-19T16:11:36.178Z,29.00
2023-05-19T16:13:37.679Z,29.08
2023-05-19T16:15:39.134Z,29.14
2023-05-19T16:17:41.177Z,29.21
2023-05-19T16:19:42.876Z,27.97
2023-05-19T16:21:44.355Z,28.88
2023-05-19T16:23:46.308Z,29.21
2023-05-19T16:25:48.316Z,29.13
2023-05-19T16:27:50.065Z,29.21
2023-05-19T16:29:51.752Z,28.99
2023-05-19T16:31:53.318Z,29.06
2023-05-19T16:33:54.781Z,29.26
2023-05-19T16:35:57.908Z,29.11
2023-05-19T16:37:59.485Z,28.83
2023-05-19T16:40:00.960Z,29.19
2023-05-19T16:42:02.948Z,28.97
2023-05-19T16:44:04.522Z,29.33
2023-05-19T16:46:06.429Z,29.30
2023-05-19T16:48:07.997Z,29.40
2023-05-19T16:50:09.873Z,29.15
2023-05-19T16:52:11.458Z,29.04
2023-05-19T16:54:12.949Z,28.97
2023-05-19T16:56:14.413Z,29.10
2023-05-19T16:58:16.098Z,28.47
2023-05-19T17:00:17.722Z,28.62
2023-05-19T17:02:19.313Z,27.44
2023-05-19T17:04:20.965Z,28.72
2023-05-19T17:06:22.460Z,28.64
2023-05-19T17:08:23.912Z,28.73
2023-05-19T17:10:25.388Z,28.35
2023-05-19T17:12:26.884Z,28.20
2023-05-19T17:14:28.497Z,28.42
2023-05-19T17:16:29.970Z,28.40
2023-05-19T17:18:31.537Z,28.48
2023-05-19T17:20:33.236Z,28.32
2023-05-19T17:22:34.929Z,28.39
2023-05-19T17:24:36.533Z,28.69
2023-05-19T17:26:38.049Z,28.70
2023-05-19T17:28:39.549Z,28.43
2023-05-19T17:30:41.330Z,28.56
2023-05-19T17:32:43.119Z,28.34
2023-05-19T17:34:44.701Z,28.50
2023-05-19T17:36:46.335Z,28.48
2023-05-19T17:38:47.808Z,28.39
2023-05-19T17:40:49.299Z,28.35
2023-05-19T17:42:50.943Z,28.58
2023-05-19T17:44:52.386Z,28.41
2023-05-19T17:46:53.919Z,28.55
2023-05-19T17:48:55.661Z,28.55
2023-05-19T17:50:57.344Z,28.81
2023-05-19T17:52:59.000Z,28.78
2023-05-19T17:55:00.673Z,28.58
2023-05-19T17:57:03.438Z,28.81
2023-05-19T17:59:05.170Z,28.66
2023-05-19T18:01:06.902Z,28.43
2023-05-19T18:03:08.640Z,28.69
2023-05-19T18:05:10.574Z,28.43
2023-05-19T18:07:12.820Z,28.49
2023-05-19T18:09:16.576Z,28.28
2023-05-19T18:11:18.304Z,28.09
2023-05-19T18:13:19.833Z,28.31
2023-05-19T18:15:21.634Z,28.09
2023-05-19T18:17:23.079Z,27.98
2023-05-19T18:19:24.676Z,28.27
2023-05-19T18:21:26.922Z,28.16
2023-05-19T18:23:28.432Z,28.35
2023-05-19T18:25:29.985Z,28.24
2023-05-19T18:27:33.295Z,28.38
2023-05-19T18:29:34.851Z,28.51
2023-05-19T18:31:36.514Z,28.36
2023-05-19T18:33:38.277Z,28.36
2023-05-19T18:35:39.729Z,28.30
2023-05-19T18:37:41.307Z,28.28
2023-05-19T18:39:42.805Z,28.27
2023-05-19T18:41:44.376Z,28.34
2023-05-19T18:43:46.119Z,28.41
2023-05-19T18:45:48.043Z,28.19
2023-05-19T18:47:49.624Z,28.11
2023-05-19T18:49:51.218Z,28.14
2023-05-19T18:51:52.762Z,28.39
2023-05-19T18:53:54.321Z,28.40
2023-05-19T18:55:55.773Z,28.25
2023-05-19T18:57:57.249Z,28.40
2023-05-19T18:59:58.755Z,28.57
2023-05-19T19:02:00.278Z,28.46
2023-05-19T19:04:02.194Z,28.62
2023-05-19T19:06:03.952Z,28.29
2023-05-19T19:08:05.684Z,28.70
2023-05-19T19:10:07.570Z,28.28
2023-05-19T19:12:09.308Z,28.39
2023-05-19T19:14:11.015Z,28.46
2023-05-19T19:16:12.642Z,28.49
2023-05-19T19:18:14.313Z,28.51
2023-05-19T19:20:15.966Z,28.52
2023-05-19T19:22:17.434Z,28.15
2023-05-19T19:24:18.993Z,28.53
2023-05-19T19:26:21.792Z,28.25
2023-05-19T19:28:23.713Z,28.30
2023-05-19T19:30:28.160Z,28.11
2023-05-19T19:32:31.361Z,28.25
2023-05-19T19:34:33.536Z,28.07
2023-05-19T19:36:35.893Z,28.46
2023-05-19T19:38:37.629Z,28.08
2023-05-19T19:40:39.224Z,28.33
2023-05-19T19:42:40.810Z,28.20
2023-05-19T19:44:42.258Z,28.42
2023-05-19T19:46:43.851Z,28.54
2023-05-19T19:48:45.588Z,28.06
2023-05-19T19:50:52.758Z,28.40
2023-05-19T19:52:54.312Z,28.10
2023-05-19T19:54:55.870Z,28.17
2023-05-19T19:56:57.466Z,28.25
2023-05-19T19:58:59.554Z,28.22
2023-05-19T20:01:02.497Z,28.41
2023-05-19T20:03:05.762Z,28.18
2023-05-19T20:05:07.828Z,28.24
2023-05-19T20:07:09.314Z,28.30
2023-05-19T20:09:10.906Z,28.36
2023-05-19T20:11:12.356Z,28.23
2023-05-19T20:13:17.020Z,28.19
2023-05-19T20:15:18.660Z,28.21
2023-05-19T20:17:20.298Z,28.21
2023-05-19T20:19:21.930Z,28.27
2023-05-19T20:21:23.572Z,28.09
2023-05-19T20:23:25.034Z,28.22
2023-05-19T20:25:27.077Z,28.27
2023-05-19T20:27:28.589Z,28.40
2023-05-19T20:29:30.134Z,28.36
2023-05-19T20:31:31.918Z,28.43
2023-05-19T20:33:33.455Z,28.72
2023-05-19T20:35:35.148Z,28.33
2023-05-19T20:37:37.192Z,28.36
2023-05-19T20:39:38.720Z,28.32
2023-05-19T20:41:40.320Z,28.35
2023-05-19T20:43:41.921Z,28.58
2023-05-19T20:45:44.143Z,28.42
2023-05-19T20:47:46.303Z,28.68
2023-05-19T20:49:48.367Z,28.38
2023-05-19T20:51:49.873Z,28.62
2023-05-19T20:53:51.645Z,28.32
2023-05-19T20:55:53.336Z,28.54
2023-05-19T20:57:54.821Z,28.89
2023-05-19T20:59:56.437Z,28.62
2023-05-19T21:01:57.982Z,28.54
2023-05-19T21:04:01.005Z,28.61
2023-05-19T21:06:03.090Z,28.38
2023-05-19T21:08:04.680Z,28.68
2023-05-19T21:10:07.000Z,28.51
2023-05-19T21:12:08.878Z,28.52
2023-05-19T21:14:10.480Z,28.74
2023-05-19T21:16:12.099Z,28.67
2023-05-19T21:18:13.926Z,28.61
2023-05-19T21:20:16.592Z,28.94
2023-05-19T21:22:18.058Z,28.87
2023-05-19T21:24:19.572Z,28.75
2023-05-19T21:26:22.040Z,28.78
2023-05-19T21:28:23.571Z,28.75
2023-05-19T21:30:25.410Z,28.74
2023-05-19T21:32:27.810Z,28.94
2023-05-19T21:34:29.329Z,28.92
2023-05-19T21:36:31.676Z,28.98
2023-05-19T21:38:33.127Z,28.98
2023-05-19T21:40:34.895Z,29.09
2023-05-19T21:42:37.260Z,29.24
2023-05-19T21:44:38.937Z,29.42
2023-05-19T21:46:40.463Z,29.39
2023-05-19T21:48:41.939Z,29.50
2023-05-19T21:50:43.491Z,29.51
2023-05-19T21:52:45.216Z,29.71
2023-05-19T21:54:47.885Z,29.70
2023-05-19T21:56:49.458Z,29.88
2023-05-19T21:58:50.972Z,29.62
2023-05-19T22:00:54.354Z,29.95
2023-05-19T22:02:55.948Z,29.86
2023-05-19T22:04:57.536Z,30.06
2023-05-19T22:06:59.022Z,30.15
2023-05-19T22:09:02.277Z,30.11
2023-05-19T22:11:03.824Z,30.32
2023-05-19T22:13:05.521Z,30.32
2023-05-19T22:15:07.499Z,30.38
2023-05-19T22:17:09.164Z,30.57
2023-05-19T22:19:11.488Z,30.64
2023-05-19T22:21:13.047Z,30.52
2023-05-19T22:23:14.630Z,30.50
2023-05-19T22:25:16.615Z,30.58
2023-05-19T22:27:18.223Z,30.83
2023-05-19T22:29:20.180Z,30.72
2023-05-19T22:31:21.702Z,30.85
2023-05-19T22:33:23.302Z,30.65
2023-05-19T22:35:24.940Z,31.02
2023-05-19T22:37:27.194Z,30.73
2023-05-19T22:39:28.793Z,30.86
2023-05-19T22:41:30.339Z,31.03
2023-05-19T22:43:32.006Z,30.98
2023-05-19T22:45:34.207Z,30.94
2023-05-19T22:47:36.245Z,30.99
2023-05-19T22:49:37.754Z,30.95
2023-05-19T22:51:39.736Z,31.06
2023-05-19T22:53:42.530Z,30.77
2023-05-19T22:55:44.041Z,30.95
2023-05-19T22:57:45.705Z,30.71
2023-05-19T22:59:47.294Z,30.96
2023-05-19T23:01:48.815Z,30.97
2023-05-19T23:03:50.439Z,31.03
2023-05-19T23:05:51.981Z,30.85
2023-05-19T23:07:53.541Z,31.10
2023-05-19T23:09:55.243Z,31.01
2023-05-19T23:11:56.752Z,31.19
2023-05-19T23:13:58.397Z,31.04
2023-05-19T23:15:59.892Z,30.93
2023-05-19T23:18:06.980Z,31.10
2023-05-19T23:20:09.139Z,31.08
2023-05-19T23:22:11.287Z,30.98
2023-05-19T23:24:13.494Z,31.04
2023-05-19T23:26:15.032Z,31.04
2023-05-19T23:28:16.741Z,31.10
2023-05-19T23:30:18.180Z,31.41
2023-05-19T23:32:19.716Z,31.13
2023-05-19T23:34:21.223Z,31.19
2023-05-19T23:36:23.171Z,31.19
2023-05-19T23:38:24.681Z,31.11
2023-05-19T23:40:26.505Z,31.24
2023-05-19T23:42:27.993Z,31.15
2023-05-19T23:44:29.576Z,31.13
2023-05-19T23:46:31.412Z,31.25
2023-05-19T23:48:33.662Z,31.19
2023-05-19T23:50:35.120Z,31.02
2023-05-19T23:52:36.610Z,31.34
2023-05-19T23:54:38.125Z,31.06
2023-05-19T23:56:39.610Z,31.37
2023-05-19T23:58:41.450Z,31.11
